createdAt,value
2023-01-20T00:00:36.192Z,93.10
2023-01-20T00:03:03.974Z,93.10
2023-01-20T00:05:31.751Z,92.50
2023-01-20T00:08:00.858Z,92.70
2023-01-20T00:10:28.601Z,92.50
2023-01-20T00:12:56.340Z,92.90
2023-01-20T00:15:24.083Z,93.60
2023-01-20T00:17:51.823Z,93.40
2023-01-20T00:20:19.737Z,92.80
2023-01-20T00:22:47.474Z,92.20
2023-01-20T00:25:16.817Z,92.00
2023-01-20T00:27:44.614Z,92.00
2023-01-20T00:30:13.491Z,91.80
2023-01-20T00:32:45.327Z,91.90
2023-01-20T00:35:14.062Z,92.20
2023-01-20T00:37:44.319Z,92.40
2023-01-20T00:40:13.435Z,92.10
2023-01-20T00:42:42.523Z,92.30
2023-01-20T00:45:10.874Z,92.20
2023-01-20T00:47:38.670Z,91.80
2023-01-20T00:50:07.122Z,91.50
2023-01-20T00:52:34.884Z,91.30
2023-01-20T00:55:02.855Z,91.30
2023-01-20T00:57:30.715Z,91.30
2023-01-20T00:59:59.810Z,91.10
2023-01-20T01:02:27.566Z,90.60
2023-01-20T01:04:55.301Z,90.70
2023-01-20T01:07:23.038Z,90.60
2023-01-20T01:09:50.794Z,90.70
2023-01-20T01:12:18.550Z,90.10
2023-01-20T01:14:46.299Z,89.10
2023-01-20T01:17:15.372Z,89.10
2023-01-20T01:19:43.273Z,89.30
2023-01-20T01:22:11.017Z,89.20
2023-01-20T01:24:38.979Z,89.00
2023-01-20T01:27:07.273Z,88.70
2023-01-20T01:29:35.044Z,89.00
2023-01-20T01:32:02.786Z,88.90
2023-01-20T01:34:32.077Z,88.80
2023-01-20T01:37:00.197Z,89.40
2023-01-20T01:39:28.820Z,89.50
2023-01-20T01:41:56.572Z,89.40
2023-01-20T01:44:27.371Z,89.70
2023-01-20T01:46:55.527Z,90.30
2023-01-20T01:49:27.434Z,90.60
2023-01-20T01:52:00.310Z,91.10
2023-01-20T01:54:32.427Z,91.50
2023-01-20T01:57:01.654Z,91.80
2023-01-20T01:59:29.536Z,92.10
2023-01-20T02:01:57.622Z,93.20
2023-01-20T02:04:27.409Z,93.20
2023-01-20T02:06:59.509Z,93.20
2023-01-20T02:09:28.784Z,93.10
2023-01-20T02:11:59.565Z,92.50
2023-01-20T02:14:32.234Z,92.40
2023-01-20T02:17:06.005Z,92.60
2023-01-20T02:20:14.618Z,92.40
2023-01-20T02:22:53.271Z,92.50
2023-01-20T02:25:45.418Z,92.60
2023-01-20T02:28:45.097Z,92.70
2023-01-20T02:31:39.809Z,93.20
2023-01-20T02:34:16.345Z,94.00
2023-01-20T02:36:49.038Z,94.30
2023-01-20T02:39:27.615Z,94.20
2023-01-20T02:41:59.553Z,94.80
2023-01-20T02:44:42.120Z,95.40
2023-01-20T02:47:16.106Z,96.10
2023-01-20T02:49:53.124Z,97.30
2023-01-20T02:52:24.801Z,97.10
2023-01-20T02:54:56.399Z,97.30
2023-01-20T02:57:28.713Z,97.20
2023-01-20T02:59:59.725Z,97.20
2023-01-20T03:02:30.436Z,97.80
2023-01-20T03:05:08.256Z,97.80
2023-01-20T03:07:39.757Z,97.70
2023-01-20T03:10:12.998Z,97.60
2023-01-20T03:12:45.610Z,97.90
2023-01-20T03:15:14.547Z,97.70
2023-01-20T03:17:42.499Z,98.00
2023-01-20T03:20:13.026Z,98.00
2023-01-20T03:22:40.904Z,97.60
2023-01-20T03:25:10.535Z,97.50
2023-01-20T03:27:38.418Z,97.60
2023-01-20T03:30:12.975Z,98.30
2023-01-20T03:32:42.232Z,98.80
2023-01-20T03:35:12.101Z,98.30
2023-01-20T03:37:39.951Z,97.40
2023-01-20T03:40:09.622Z,96.90
2023-01-20T03:42:43.976Z,96.80
2023-01-20T03:45:17.860Z,96.70
2023-01-20T03:47:54.362Z,96.60
2023-01-20T03:50:33.733Z,97.30
2023-01-20T03:53:08.429Z,98.00
2023-01-20T03:55:42.526Z,98.10
2023-01-20T03:58:13.086Z,97.90
2023-01-20T04:00:45.472Z,98.10
2023-01-20T04:03:18.930Z,98.30
2023-01-20T04:05:49.559Z,98.20
2023-01-20T04:08:18.923Z,98.10
2023-01-20T04:10:49.357Z,97.90
2023-01-20T04:13:17.596Z,97.30
2023-01-20T04:15:48.093Z,96.90
2023-01-20T04:18:17.907Z,96.70
2023-01-20T04:20:49.221Z,97.20
2023-01-20T04:23:22.001Z,98.10
2023-01-20T04:25:49.935Z,98.90
2023-01-20T04:28:17.776Z,99.60
2023-01-20T04:30:45.699Z,99.80
2023-01-20T04:33:13.590Z,99.90
2023-01-20T04:35:41.384Z,99.30
2023-01-20T04:38:10.601Z,98.80
2023-01-20T04:40:38.352Z,98.50
2023-01-20T04:43:06.119Z,98.70
2023-01-20T04:45:33.871Z,98.40
2023-01-20T04:48:01.603Z,98.20
2023-01-20T04:50:29.351Z,98.10
2023-01-20T04:52:58.929Z,98.20
2023-01-20T04:55:29.963Z,99.40
2023-01-20T04:57:57.697Z,99.90
2023-01-20T05:00:25.725Z,99.90
2023-01-20T05:02:53.629Z,99.90
2023-01-20T05:05:21.383Z,99.90
2023-01-20T05:07:53.266Z,99.90
2023-01-20T05:10:21.158Z,99.80
2023-01-20T05:12:50.279Z,99.60
2023-01-20T05:15:18.178Z,98.40
2023-01-20T05:17:45.905Z,96.30
2023-01-20T05:20:14.503Z,95.00
2023-01-20T05:22:42.353Z,94.40
2023-01-20T05:25:10.558Z,94.00
2023-01-20T05:27:38.988Z,93.20
2023-01-20T05:30:09.760Z,91.90
2023-01-20T05:32:37.500Z,92.50
2023-01-20T05:35:05.723Z,93.20
2023-01-20T05:37:33.471Z,93.80
2023-01-20T05:40:01.243Z,92.80
2023-01-20T05:42:28.980Z,92.00
2023-01-20T05:44:56.719Z,91.50
2023-01-20T05:47:25.967Z,91.60
2023-01-20T05:49:53.760Z,92.10
2023-01-20T05:52:21.537Z,91.90
2023-01-20T05:54:49.300Z,92.00
2023-01-20T05:57:18.300Z,92.20
2023-01-20T05:59:47.595Z,92.30
2023-01-20T06:02:18.645Z,92.20
2023-01-20T06:04:48.105Z,92.40
2023-01-20T06:07:16.487Z,93.50
2023-01-20T06:09:44.287Z,94.20
2023-01-20T06:12:12.013Z,94.40
2023-01-20T06:14:39.764Z,94.40
2023-01-20T06:17:07.563Z,94.10
2023-01-20T06:19:35.315Z,93.90
2023-01-20T06:22:04.576Z,93.70
2023-01-20T06:24:32.326Z,93.50
2023-01-20T06:27:00.265Z,93.70
2023-01-20T06:29:28.011Z,94.50
2023-01-20T06:31:55.882Z,94.90
2023-01-20T06:34:23.759Z,94.80
2023-01-20T06:36:51.506Z,95.00
2023-01-20T06:39:20.583Z,94.70
2023-01-20T06:41:48.382Z,94.70
2023-01-20T06:44:17.231Z,95.70
2023-01-20T06:46:48.190Z,95.70
2023-01-20T06:49:16.337Z,96.60
2023-01-20T06:51:44.399Z,97.30
2023-01-20T06:54:12.169Z,97.50
2023-01-20T06:56:41.266Z,97.30
2023-01-20T06:59:10.133Z,96.60
2023-01-20T07:01:38.258Z,95.30
2023-01-20T07:04:06.568Z,94.00
2023-01-20T07:06:36.007Z,93.00
2023-01-20T07:09:03.820Z,92.80
2023-01-20T07:11:32.761Z,93.00
2023-01-20T07:14:02.092Z,93.50
2023-01-20T07:16:30.162Z,94.30
2023-01-20T07:18:58.283Z,95.40
2023-01-20T07:21:26.824Z,96.10
2023-01-20T07:23:54.739Z,96.40
2023-01-20T07:26:24.221Z,96.10
2023-01-20T07:28:52.068Z,95.10
2023-01-20T07:31:23.844Z,94.30
2023-01-20T07:33:52.064Z,94.10
2023-01-20T07:36:20.245Z,93.80
2023-01-20T07:38:49.281Z,94.10
2023-01-20T07:41:19.677Z,94.30
2023-01-20T07:43:49.649Z,94.90
2023-01-20T07:46:17.809Z,94.60
2023-01-20T07:48:46.926Z,93.70
2023-01-20T07:51:16.928Z,93.20
2023-01-20T07:53:46.703Z,93.30
2023-01-20T07:56:16.435Z,91.60
2023-01-20T07:58:45.209Z,90.70
2023-01-20T08:01:15.079Z,91.10
2023-01-20T08:03:43.423Z,91.00
2023-01-20T08:06:14.559Z,91.60
2023-01-20T08:08:42.404Z,91.80
2023-01-20T08:11:12.758Z,90.90
2023-01-20T08:13:41.088Z,89.70
2023-01-20T08:16:11.445Z,90.20
2023-01-20T08:18:39.694Z,90.10
2023-01-20T08:21:08.745Z,90.50
2023-01-20T08:23:38.611Z,90.80
2023-01-20T08:26:07.722Z,91.00
2023-01-20T08:28:37.217Z,90.80
2023-01-20T08:31:06.568Z,90.70
2023-01-20T08:33:34.571Z,90.70
2023-01-20T08:36:07.641Z,90.90
2023-01-20T08:38:36.972Z,90.20
2023-01-20T08:41:08.122Z,88.60
2023-01-20T08:43:35.906Z,88.50
2023-01-20T08:46:06.472Z,87.70
2023-01-20T08:48:34.988Z,86.90
2023-01-20T08:51:05.263Z,86.40
2023-01-20T08:53:33.021Z,84.20
2023-01-20T08:56:05.643Z,84.00
2023-01-20T08:58:33.639Z,83.60
2023-01-20T09:01:01.706Z,84.20
2023-01-20T09:03:31.082Z,84.40
2023-01-20T09:06:03.081Z,83.90
2023-01-20T09:08:31.180Z,83.30
2023-01-20T09:11:04.917Z,82.90
2023-01-20T09:13:32.781Z,81.40
2023-01-20T09:16:00.653Z,81.90
2023-01-20T09:18:28.808Z,83.40
2023-01-20T09:20:58.427Z,82.90
2023-01-20T09:23:26.275Z,83.90
2023-01-20T09:25:54.075Z,84.40
2023-01-20T09:28:23.182Z,83.10
2023-01-20T09:30:51.149Z,83.70
2023-01-20T09:33:18.943Z,81.10
2023-01-20T09:35:54.404Z,81.00
2023-01-20T09:38:39.912Z,81.30
2023-01-20T09:41:35.407Z,79.50
2023-01-20T09:44:20.529Z,79.70
2023-01-20T09:47:18.267Z,78.50
2023-01-20T09:50:17.850Z,77.80
2023-01-20T09:53:04.651Z,76.50
2023-01-20T09:55:40.889Z,73.40
2023-01-20T09:58:14.836Z,73.20
2023-01-20T10:00:49.867Z,73.30
2023-01-20T10:03:22.983Z,73.90
2023-01-20T10:05:55.529Z,72.40
2023-01-20T10:08:30.153Z,72.20
2023-01-20T10:11:04.660Z,73.60
2023-01-20T10:13:37.258Z,75.70
2023-01-20T10:16:12.360Z,76.30
2023-01-20T10:18:47.884Z,76.40
2023-01-20T10:21:21.549Z,75.80
2023-01-20T10:23:53.707Z,74.30
2023-01-20T10:26:26.410Z,74.70
2023-01-20T10:28:59.815Z,71.20
2023-01-20T10:31:31.750Z,72.10
2023-01-20T10:34:08.802Z,71.20
2023-01-20T10:36:37.453Z,70.50
2023-01-20T10:39:12.762Z,71.70
2023-01-20T10:41:46.455Z,72.30
2023-01-20T10:44:16.548Z,70.30
2023-01-20T10:47:02.021Z,69.40
2023-01-20T10:49:53.310Z,68.70
2023-01-20T10:52:38.674Z,70.00
2023-01-20T10:55:20.133Z,69.70
2023-01-20T10:57:53.033Z,71.70
2023-01-20T11:00:24.801Z,71.00
2023-01-20T11:02:54.455Z,69.70
2023-01-20T11:05:25.501Z,70.60
2023-01-20T11:07:55.260Z,70.70
2023-01-20T11:10:27.313Z,70.60
2023-01-20T11:12:57.792Z,71.50
2023-01-20T11:15:30.067Z,71.30
2023-01-20T11:18:30.612Z,69.40
2023-01-20T11:21:01.708Z,68.60
2023-01-20T11:23:41.535Z,67.10
2023-01-20T11:26:21.516Z,67.60
2023-01-20T11:28:52.526Z,67.80
2023-01-20T11:31:21.478Z,67.90
2023-01-20T11:34:01.419Z,67.60
2023-01-20T11:36:30.043Z,68.20
2023-01-20T11:38:58.689Z,68.70
2023-01-20T11:41:28.362Z,69.60
2023-01-20T11:43:57.341Z,69.40
2023-01-20T11:46:30.871Z,70.70
2023-01-20T11:49:19.379Z,70.50
2023-01-20T11:51:50.187Z,71.80
2023-01-20T11:54:20.272Z,71.80
2023-01-20T11:56:52.650Z,72.20
2023-01-20T11:59:27.927Z,71.80
2023-01-20T12:02:00.656Z,72.10
2023-01-20T12:04:48.024Z,73.30
2023-01-20T12:07:20.628Z,73.00
2023-01-20T12:09:53.466Z,72.80
2023-01-20T12:12:30.512Z,71.90
2023-01-20T12:15:03.760Z,71.10
2023-01-20T12:17:42.293Z,70.70
2023-01-20T12:20:20.570Z,70.70
2023-01-20T12:22:58.824Z,70.40
2023-01-20T12:25:31.190Z,70.30
2023-01-20T12:28:03.638Z,70.80
2023-01-20T12:30:44.169Z,71.40
2023-01-20T12:33:21.710Z,71.50
2023-01-20T12:36:20.873Z,71.90
2023-01-20T12:39:02.135Z,72.50
2023-01-20T12:41:47.272Z,71.70
2023-01-20T12:44:20.883Z,72.30
2023-01-20T12:46:52.697Z,73.10
2023-01-20T12:49:42.538Z,72.90
2023-01-20T12:52:33.866Z,73.30
2023-01-20T12:55:18.638Z,70.40
2023-01-20T12:57:59.838Z,71.20
2023-01-20T13:00:43.485Z,69.70
2023-01-20T13:03:56.125Z,70.30
2023-01-20T13:06:42.233Z,71.80
2023-01-20T13:09:38.183Z,72.90
2023-01-20T13:12:19.407Z,73.40
2023-01-20T13:14:50.168Z,73.00
2023-01-20T13:17:24.543Z,72.80
2023-01-20T13:19:54.158Z,72.90
2023-01-20T13:22:23.763Z,74.20
2023-01-20T13:24:54.713Z,73.40
2023-01-20T13:27:27.454Z,74.40
2023-01-20T13:29:56.837Z,73.70
2023-01-20T13:32:33.958Z,73.70
2023-01-20T13:35:03.391Z,73.40
2023-01-20T13:37:34.797Z,73.20
2023-01-20T13:40:06.562Z,73.10
2023-01-20T13:42:51.894Z,73.00
2023-01-20T13:45:25.747Z,74.60
2023-01-20T13:47:58.524Z,74.70
2023-01-20T13:50:29.662Z,75.00
2023-01-20T13:53:27.804Z,74.20
2023-01-20T13:55:59.127Z,74.70
2023-01-20T13:58:28.631Z,75.00
2023-01-20T14:00:58.187Z,75.40
2023-01-20T14:03:28.892Z,75.30
2023-01-20T14:05:58.984Z,75.50
2023-01-20T14:08:29.006Z,75.90
2023-01-20T14:11:13.703Z,75.30
2023-01-20T14:13:42.726Z,75.70
2023-01-20T14:16:20.708Z,76.10
2023-01-20T14:18:49.605Z,76.10
2023-01-20T14:21:21.905Z,76.60
2023-01-20T14:23:50.446Z,75.80
2023-01-20T14:26:24.339Z,75.90
2023-01-20T14:28:53.843Z,75.80
2023-01-20T14:31:36.396Z,76.70
2023-01-20T14:34:27.184Z,77.60
2023-01-20T14:36:57.425Z,77.00
2023-01-20T14:39:27.079Z,76.60
2023-01-20T14:41:58.252Z,76.30
2023-01-20T14:44:28.079Z,76.30
2023-01-20T14:46:58.965Z,76.40
2023-01-20T14:49:32.926Z,77.20
2023-01-20T14:52:01.824Z,77.20
2023-01-20T14:54:42.766Z,77.20
2023-01-20T14:57:27.019Z,77.00
2023-01-20T15:00:14.483Z,76.80
2023-01-20T15:02:45.005Z,77.10
2023-01-20T15:05:27.718Z,76.50
2023-01-20T15:08:24.351Z,77.80
2023-01-20T15:11:20.668Z,78.30
2023-01-20T15:14:09.241Z,77.80
2023-01-20T15:16:49.130Z,78.60
2023-01-20T15:19:46.020Z,78.80
2023-01-20T15:22:26.906Z,79.30
2023-01-20T15:24:55.523Z,79.30
2023-01-20T15:27:31.265Z,79.80
2023-01-20T15:30:27.271Z,80.50
2023-01-20T15:32:56.354Z,80.80
2023-01-20T15:35:26.833Z,81.40
2023-01-20T15:37:55.504Z,82.10
2023-01-20T15:40:25.140Z,81.30
2023-01-20T15:42:53.429Z,80.80
2023-01-20T15:45:21.292Z,81.20
2023-01-20T15:47:50.420Z,82.20
2023-01-20T15:50:20.737Z,81.90
2023-01-20T15:52:48.918Z,82.70
2023-01-20T15:55:18.326Z,82.80
2023-01-20T15:57:48.611Z,83.30
2023-01-20T16:00:20.440Z,83.10
2023-01-20T16:02:48.302Z,83.60
2023-01-20T16:05:17.999Z,84.50
2023-01-20T16:07:47.466Z,84.30
2023-01-20T16:10:18.151Z,84.50
2023-01-20T16:12:46.573Z,85.10
2023-01-20T16:15:16.168Z,85.10
2023-01-20T16:17:44.054Z,85.80
2023-01-20T16:20:20.667Z,86.00
2023-01-20T16:22:48.454Z,87.20
2023-01-20T16:25:16.471Z,87.80
2023-01-20T16:27:44.542Z,87.40
2023-01-20T16:30:17.026Z,86.40
2023-01-20T16:32:46.277Z,87.60
2023-01-20T16:35:14.857Z,88.00
2023-01-20T16:37:46.519Z,87.60
2023-01-20T16:40:15.786Z,88.00
2023-01-20T16:42:43.890Z,87.90
2023-01-20T16:45:23.514Z,88.20
2023-01-20T16:47:51.863Z,87.80
2023-01-20T16:50:19.930Z,88.10
2023-01-20T16:52:49.238Z,88.80
2023-01-20T16:55:17.075Z,89.00
2023-01-20T16:57:45.165Z,89.20
2023-01-20T17:00:18.840Z,88.50
2023-01-20T17:02:51.171Z,88.70
2023-01-20T17:05:22.264Z,88.50
2023-01-20T17:07:51.533Z,88.90
2023-01-20T17:10:20.238Z,88.90
2023-01-20T17:12:48.961Z,88.90
2023-01-20T17:15:16.971Z,88.50
2023-01-20T17:17:48.182Z,87.60
2023-01-20T17:20:17.582Z,87.50
2023-01-20T17:22:45.871Z,88.20
2023-01-20T17:25:17.925Z,89.40
2023-01-20T17:27:45.989Z,89.60
2023-01-20T17:30:14.775Z,89.10
2023-01-20T17:32:46.978Z,89.20
2023-01-20T17:35:14.975Z,89.40
2023-01-20T17:37:42.948Z,89.60
2023-01-20T17:40:12.117Z,89.70
2023-01-20T17:42:43.452Z,89.60
2023-01-20T17:45:12.190Z,89.50
2023-01-20T17:47:39.961Z,89.70
2023-01-20T17:50:08.199Z,88.90
2023-01-20T17:52:35.952Z,88.80
2023-01-20T17:55:03.783Z,89.20
2023-01-20T17:57:32.524Z,89.40
2023-01-20T18:00:01.668Z,88.90
2023-01-20T18:02:29.481Z,89.30
2023-01-20T18:04:57.312Z,89.00
2023-01-20T18:07:25.070Z,88.80
2023-01-20T18:09:52.944Z,89.20
2023-01-20T18:12:21.537Z,89.90
2023-01-20T18:14:49.387Z,90.00
2023-01-20T18:17:18.527Z,89.60
2023-01-20T18:19:46.656Z,89.70
2023-01-20T18:22:15.091Z,89.60
2023-01-20T18:24:42.915Z,89.40
2023-01-20T18:27:10.680Z,88.70
2023-01-20T18:29:38.435Z,88.60
2023-01-20T18:32:06.606Z,88.50
2023-01-20T18:34:35.836Z,88.40
2023-01-20T18:37:03.588Z,88.20
2023-01-20T18:39:31.495Z,88.10
2023-01-20T18:41:59.293Z,88.60
2023-01-20T18:44:27.071Z,88.40
2023-01-20T18:46:54.860Z,88.60
2023-01-20T18:49:22.816Z,87.70
2023-01-20T18:51:51.928Z,87.00
2023-01-20T18:54:21.801Z,86.70
2023-01-20T18:56:49.609Z,86.00
2023-01-20T18:59:17.435Z,85.70
2023-01-20T19:01:45.246Z,85.70
2023-01-20T19:04:13.926Z,87.20
2023-01-20T19:06:43.825Z,86.40
2023-01-20T19:09:13.500Z,85.80
2023-01-20T19:11:42.760Z,85.90
2023-01-20T19:14:13.569Z,86.00
2023-01-20T19:16:45.036Z,86.00
2023-01-20T19:19:13.449Z,86.90
2023-01-20T19:21:41.237Z,87.10
2023-01-20T19:24:11.829Z,87.50
2023-01-20T19:26:40.932Z,87.50
2023-01-20T19:29:17.176Z,86.40
2023-01-20T19:31:45.906Z,87.50
2023-01-20T19:34:14.058Z,88.70
2023-01-20T19:36:41.847Z,89.70
2023-01-20T19:39:09.618Z,90.00
2023-01-20T19:41:38.854Z,89.40
2023-01-20T19:44:08.313Z,88.90
2023-01-20T19:46:39.326Z,88.00
2023-01-20T19:49:07.772Z,87.90
2023-01-20T19:51:36.325Z,89.40
2023-01-20T19:54:05.441Z,90.30
2023-01-20T19:56:35.231Z,91.60
2023-01-20T19:59:03.203Z,91.80
2023-01-20T20:01:33.653Z,92.30
2023-01-20T20:04:06.259Z,92.50
2023-01-20T20:06:35.402Z,90.70
2023-01-20T20:09:05.854Z,90.80
2023-01-20T20:11:34.256Z,91.60
2023-01-20T20:14:03.489Z,92.70
2023-01-20T20:16:35.188Z,92.60
2023-01-20T20:19:03.468Z,93.80
2023-01-20T20:21:31.273Z,94.90
2023-01-20T20:24:00.251Z,95.30
2023-01-20T20:26:30.090Z,95.00
2023-01-20T20:28:58.981Z,94.10
2023-01-20T20:31:29.138Z,93.60
2023-01-20T20:33:59.430Z,94.10
2023-01-20T20:36:30.764Z,94.50
2023-01-20T20:38:59.233Z,94.50
2023-01-20T20:41:29.189Z,92.90
2023-01-20T20:43:57.527Z,92.30
2023-01-20T20:46:25.950Z,95.10
2023-01-20T20:48:54.587Z,96.00
2023-01-20T20:51:24.247Z,93.60
2023-01-20T20:53:55.704Z,91.80
2023-01-20T20:56:24.626Z,89.40
2023-01-20T20:59:01.342Z,86.90
2023-01-20T21:01:31.163Z,87.10
2023-01-20T21:04:00.372Z,88.50
2023-01-20T21:06:30.424Z,90.00
2023-01-20T21:08:59.480Z,90.30
2023-01-20T21:11:27.699Z,91.40
2023-01-20T21:13:56.055Z,91.60
2023-01-20T21:16:25.248Z,93.20
2023-01-20T21:18:55.932Z,94.20
2023-01-20T21:21:24.317Z,93.70
2023-01-20T21:23:54.910Z,93.80
2023-01-20T21:26:24.229Z,94.70
2023-01-20T21:28:52.170Z,95.60
2023-01-20T21:31:22.641Z,94.80
2023-01-20T21:33:54.420Z,93.70
2023-01-20T21:36:22.428Z,92.90
2023-01-20T21:38:50.552Z,92.10
2023-01-20T21:41:20.253Z,92.50
2023-01-20T21:44:06.473Z,93.70
2023-01-20T21:46:38.692Z,94.30
2023-01-20T21:49:25.009Z,96.00
2023-01-20T21:52:10.651Z,96.30
2023-01-20T21:54:39.675Z,95.10
2023-01-20T21:57:09.682Z,94.20
2023-01-20T21:59:37.859Z,93.90
2023-01-20T22:02:05.976Z,93.40
2023-01-20T22:04:35.503Z,93.70
2023-01-20T22:07:03.258Z,93.20
2023-01-20T22:09:31.014Z,93.00
2023-01-20T22:11:58.782Z,92.90
2023-01-20T22:14:27.885Z,92.60
2023-01-20T22:16:55.670Z,93.30
2023-01-20T22:19:23.433Z,93.90
2023-01-20T22:21:51.597Z,94.10
2023-01-20T22:24:19.515Z,93.70
2023-01-20T22:26:48.188Z,93.20
2023-01-20T22:29:16.321Z,92.90
2023-01-20T22:31:45.535Z,93.70
2023-01-20T22:34:14.035Z,94.20
2023-01-20T22:36:41.857Z,94.30
2023-01-20T22:39:11.733Z,94.00
2023-01-20T22:41:39.761Z,93.60
2023-01-20T22:44:07.602Z,92.90
2023-01-20T22:46:35.457Z,92.90
2023-01-20T22:49:04.687Z,93.40
2023-01-20T22:51:32.528Z,93.60
2023-01-20T22:54:01.807Z,94.10
2023-01-20T22:56:31.096Z,96.00
2023-01-20T22:58:59.654Z,96.50
2023-01-20T23:01:29.220Z,96.70
2023-01-20T23:03:58.318Z,95.60
2023-01-20T23:06:28.898Z,94.70
2023-01-20T23:08:56.876Z,93.90
2023-01-20T23:11:25.140Z,93.50
2023-01-20T23:13:53.981Z,93.00
2023-01-20T23:16:23.547Z,93.90
2023-01-20T23:18:52.308Z,94.40
2023-01-20T23:21:21.111Z,94.30
2023-01-20T23:23:54.203Z,94.20
2023-01-20T23:26:24.149Z,93.70
2023-01-20T23:28:53.447Z,92.80
2023-01-20T23:31:21.588Z,92.90
2023-01-20T23:33:49.549Z,93.90
2023-01-20T23:36:19.907Z,94.60
2023-01-20T23:38:48.392Z,94.20
2023-01-20T23:41:17.799Z,93.30
2023-01-20T23:43:45.606Z,93.40
2023-01-20T23:46:13.484Z,93.30
2023-01-20T23:48:41.311Z,93.10
2023-01-20T23:51:09.107Z,93.50
2023-01-20T23:53:40.269Z,94.30
2023-01-20T23:56:11.741Z,94.20
2023-01-20T23:58:41.073Z,94.10
